createdAt,value
2023-03-27T00:01:11.781Z,95924.28
2023-03-27T00:03:40.081Z,95932.22
2023-03-27T00:06:17.383Z,95921.91
2023-03-27T00:08:46.517Z,95922.69
2023-03-27T00:11:13.877Z,95933.81
2023-03-27T00:13:49.146Z,95930.25
2023-03-27T00:16:19.195Z,95936.03
2023-03-27T00:18:45.857Z,95946.34
2023-03-27T00:21:12.371Z,95946.63
2023-03-27T00:23:38.796Z,95952.03
2023-03-27T00:26:05.472Z,95952.69
2023-03-27T00:28:32.337Z,95959.03
2023-03-27T00:30:59.025Z,95965.31
2023-03-27T00:33:26.538Z,95963.94
2023-03-27T00:35:53.667Z,95977.78
2023-03-27T00:38:21.085Z,95986.81
2023-03-27T00:40:49.148Z,95975.72
2023-03-27T00:43:27.341Z,95979.22
2023-03-27T00:46:02.342Z,95985.06
2023-03-27T00:48:30.872Z,95980.84
2023-03-27T00:51:00.328Z,95989.75
2023-03-27T00:53:29.059Z,95996.94
2023-03-27T00:56:01.188Z,95996.41
2023-03-27T00:58:32.048Z,95999.72
2023-03-27T01:00:58.769Z,95997.47
2023-03-27T01:03:30.348Z,95998.25
2023-03-27T01:06:00.060Z,96001.09
2023-03-27T01:08:30.046Z,96004.16
2023-03-27T01:11:33.956Z,96001.84
2023-03-27T01:14:23.491Z,96012.03
2023-03-27T01:17:14.405Z,96015.81
2023-03-27T01:20:10.133Z,96019.34
2023-03-27T01:22:53.615Z,96016.94
2023-03-27T01:25:44.496Z,96032.88
2023-03-27T01:28:14.190Z,96042.31
2023-03-27T01:31:06.647Z,96041.72
2023-03-27T01:34:14.892Z,96054.38
2023-03-27T01:37:04.406Z,96065.63
2023-03-27T01:40:00.130Z,96069.72
2023-03-27T01:42:35.579Z,96068.63
2023-03-27T01:45:11.841Z,96077.34
2023-03-27T01:47:59.965Z,96083.28
2023-03-27T01:50:37.587Z,96082.47
2023-03-27T01:53:12.300Z,96089.41
2023-03-27T01:55:41.155Z,96090.19
2023-03-27T01:58:13.859Z,96090.22
2023-03-27T02:00:52.070Z,96105.09
2023-03-27T02:03:27.572Z,96116.00
2023-03-27T02:06:07.597Z,96122.38
2023-03-27T02:08:43.854Z,96126.03
2023-03-27T02:11:10.689Z,96126.59
2023-03-27T02:13:53.529Z,96125.78
2023-03-27T02:16:24.859Z,96128.97
2023-03-27T02:18:58.064Z,96134.66
2023-03-27T02:21:25.160Z,96137.91
2023-03-27T02:23:52.970Z,96151.00
2023-03-27T02:26:19.511Z,96147.72
2023-03-27T02:28:56.756Z,96163.03
2023-03-27T02:31:57.380Z,96161.81
2023-03-27T02:34:40.664Z,96177.25
2023-03-27T02:37:12.034Z,96183.78
2023-03-27T02:39:49.048Z,96184.78
2023-03-27T02:42:21.910Z,96197.28
2023-03-27T02:45:02.903Z,96190.00
2023-03-27T02:47:38.459Z,96216.75
2023-03-27T02:50:11.823Z,96211.78
2023-03-27T02:52:45.505Z,96226.91
2023-03-27T02:55:17.531Z,96232.41
2023-03-27T02:57:51.919Z,96234.75
2023-03-27T03:00:27.935Z,96239.69
2023-03-27T03:03:06.323Z,96245.78
2023-03-27T03:05:32.878Z,96258.13
2023-03-27T03:07:59.396Z,96260.47
2023-03-27T03:10:27.130Z,96263.75
2023-03-27T03:12:53.477Z,96268.72
2023-03-27T03:15:19.960Z,96287.59
2023-03-27T03:17:47.536Z,96282.84
2023-03-27T03:20:14.103Z,96300.91
2023-03-27T03:22:42.152Z,96297.81
2023-03-27T03:25:09.663Z,96317.25
2023-03-27T03:27:37.002Z,96319.28
2023-03-27T03:30:04.591Z,96329.38
2023-03-27T03:32:31.136Z,96329.38
2023-03-27T03:34:57.758Z,96345.19
2023-03-27T03:37:28.645Z,96341.97
2023-03-27T03:39:55.872Z,96342.34
2023-03-27T03:42:24.062Z,96356.22
2023-03-27T03:44:50.838Z,96363.44
2023-03-27T03:47:17.317Z,96373.53
2023-03-27T03:49:43.749Z,96382.69
2023-03-27T03:52:10.448Z,96381.69
2023-03-27T03:54:38.675Z,96385.88
2023-03-27T03:57:05.239Z,96395.28
2023-03-27T03:59:32.047Z,96397.34
2023-03-27T04:01:58.456Z,96404.53
2023-03-27T04:04:25.120Z,96413.78
2023-03-27T04:06:53.042Z,96423.78
2023-03-27T04:09:19.928Z,96430.59
2023-03-27T04:11:46.987Z,96433.88
2023-03-27T04:14:13.523Z,96445.53
2023-03-27T04:16:40.076Z,96460.34
2023-03-27T04:19:07.042Z,96451.53
2023-03-27T04:21:33.459Z,96467.19
2023-03-27T04:24:02.553Z,96471.16
2023-03-27T04:26:29.610Z,96475.63
2023-03-27T04:28:56.138Z,96488.03
2023-03-27T04:31:22.612Z,96499.63
2023-03-27T04:33:51.908Z,96504.47
2023-03-27T04:36:19.143Z,96507.69
2023-03-27T04:38:45.728Z,96511.28
2023-03-27T04:41:12.235Z,96531.13
2023-03-27T04:43:41.620Z,96521.31
2023-03-27T04:46:08.585Z,96533.72
2023-03-27T04:48:38.515Z,96539.31
2023-03-27T04:51:06.770Z,96550.94
2023-03-27T04:53:35.982Z,96565.38
2023-03-27T04:56:02.611Z,96569.78
2023-03-27T04:58:29.084Z,96575.81
2023-03-27T05:00:56.322Z,96574.78
2023-03-27T05:03:28.222Z,96578.41
2023-03-27T05:05:54.750Z,96584.59
2023-03-27T05:08:21.521Z,96595.63
2023-03-27T05:10:47.890Z,96600.59
2023-03-27T05:13:14.501Z,96611.22
2023-03-27T05:15:41.530Z,96621.03
2023-03-27T05:18:09.205Z,96635.81
2023-03-27T05:20:36.539Z,96643.25
2023-03-27T05:23:03.173Z,96648.19
2023-03-27T05:25:30.922Z,96657.03
2023-03-27T05:27:57.796Z,96661.28
2023-03-27T05:30:25.029Z,96665.84
2023-03-27T05:32:53.418Z,96677.91
2023-03-27T05:35:23.198Z,96680.28
2023-03-27T05:37:52.478Z,96681.72
2023-03-27T05:40:22.246Z,96694.75
2023-03-27T05:42:50.316Z,96703.16
2023-03-27T05:45:17.895Z,96710.38
2023-03-27T05:47:53.739Z,96705.53
2023-03-27T05:50:22.376Z,96718.34
2023-03-27T05:52:55.744Z,96719.94
2023-03-27T05:55:22.182Z,96732.13
2023-03-27T05:57:48.722Z,96727.56
2023-03-27T06:00:16.390Z,96739.56
2023-03-27T06:02:44.850Z,96752.03
2023-03-27T06:05:16.216Z,96751.63
2023-03-27T06:07:43.631Z,96768.88
2023-03-27T06:10:13.510Z,96773.88
2023-03-27T06:12:41.640Z,96772.31
2023-03-27T06:15:09.509Z,96770.13
2023-03-27T06:17:39.487Z,96775.75
2023-03-27T06:20:15.442Z,96790.13
2023-03-27T06:22:50.820Z,96801.72
2023-03-27T06:25:18.174Z,96805.00
2023-03-27T06:27:47.377Z,96799.84
2023-03-27T06:30:17.488Z,96803.84
2023-03-27T06:32:49.442Z,96812.75
2023-03-27T06:35:17.137Z,96815.16
2023-03-27T06:37:48.283Z,96822.66
2023-03-27T06:40:23.329Z,96835.53
2023-03-27T06:43:00.856Z,96838.22
2023-03-27T06:45:35.982Z,96833.16
2023-03-27T06:48:15.393Z,96847.72
2023-03-27T06:50:47.290Z,96849.25
2023-03-27T06:53:26.360Z,96849.69
2023-03-27T06:55:54.027Z,96843.06
2023-03-27T06:58:20.855Z,96866.94
2023-03-27T07:00:49.736Z,96881.19
2023-03-27T07:03:17.909Z,96873.41
2023-03-27T07:05:44.631Z,96879.81
2023-03-27T07:10:43.135Z,96894.72
2023-03-27T07:13:09.673Z,96901.34
2023-03-27T07:15:36.555Z,96907.19
2023-03-27T07:18:06.271Z,96905.78
2023-03-27T07:20:34.440Z,96915.63
2023-03-27T07:23:01.739Z,96924.50
2023-03-27T07:25:36.845Z,96935.31
2023-03-27T07:28:09.917Z,96935.34
2023-03-27T07:30:37.020Z,96948.59
2023-03-27T07:33:05.285Z,96956.19
2023-03-27T07:35:32.410Z,96969.19
2023-03-27T07:37:58.899Z,96959.44
2023-03-27T07:40:36.925Z,96960.84
2023-03-27T07:43:07.205Z,96962.50
2023-03-27T07:45:34.333Z,96962.13
2023-03-27T07:48:18.770Z,96972.06
2023-03-27T07:50:45.527Z,96973.69
2023-03-27T07:53:33.462Z,96973.63
2023-03-27T07:55:59.087Z,96983.38
2023-03-27T07:58:25.737Z,96984.53
2023-03-27T08:00:52.991Z,96981.25
2023-03-27T08:03:21.002Z,96989.88
2023-03-27T08:05:59.079Z,97005.38
2023-03-27T08:08:26.731Z,97009.03
2023-03-27T08:10:57.719Z,97005.94
2023-03-27T08:13:24.275Z,97020.75
2023-03-27T08:15:51.069Z,97023.38
2023-03-27T08:18:17.808Z,97026.25
2023-03-27T08:20:45.450Z,97030.28
2023-03-27T08:23:11.896Z,97033.19
2023-03-27T08:25:38.605Z,97036.06
2023-03-27T08:28:05.037Z,97034.94
2023-03-27T08:30:31.928Z,97040.13
2023-03-27T08:33:00.032Z,97038.81
2023-03-27T08:35:27.040Z,97046.69
2023-03-27T08:37:54.019Z,97049.25
2023-03-27T08:40:28.085Z,97047.34
2023-03-27T08:43:01.911Z,97055.00
2023-03-27T08:45:38.408Z,97058.50
2023-03-27T08:48:34.142Z,97062.78
2023-03-27T08:51:06.442Z,97070.22
2023-03-27T08:53:42.166Z,97064.59
2023-03-27T08:56:14.302Z,97081.94
2023-03-27T08:58:42.192Z,97079.06
2023-03-27T09:01:26.182Z,97080.28
2023-03-27T09:04:12.673Z,97081.22
2023-03-27T09:06:45.781Z,97093.38
2023-03-27T09:09:44.885Z,97085.59
2023-03-27T09:12:13.996Z,97087.78
2023-03-27T09:14:46.470Z,97089.78
2023-03-27T09:17:24.100Z,97098.50
2023-03-27T09:20:00.295Z,97103.84
2023-03-27T09:22:31.267Z,97107.06
2023-03-27T09:25:02.491Z,97106.72
2023-03-27T09:27:33.844Z,97109.16
2023-03-27T09:30:12.385Z,97112.03
2023-03-27T09:32:39.471Z,97122.59
2023-03-27T09:35:06.244Z,97117.34
2023-03-27T09:37:34.531Z,97122.66
2023-03-27T09:40:05.890Z,97121.34
2023-03-27T09:42:37.476Z,97130.03
2023-03-27T09:45:06.972Z,97119.41
2023-03-27T09:47:38.375Z,97130.25
2023-03-27T09:50:27.693Z,97122.59
2023-03-27T09:53:17.308Z,97128.75
2023-03-27T09:56:09.702Z,97138.88
2023-03-27T09:58:46.262Z,97133.34
2023-03-27T10:01:19.813Z,97135.84
2023-03-27T10:03:51.193Z,97129.72
2023-03-27T10:06:27.221Z,97132.97
2023-03-27T10:08:55.496Z,97129.53
2023-03-27T10:11:32.658Z,97138.69
2023-03-27T10:14:01.847Z,97143.19
2023-03-27T10:16:28.832Z,97149.19
2023-03-27T10:18:58.092Z,97145.53
2023-03-27T10:21:38.773Z,97152.00
2023-03-27T10:24:28.259Z,97150.28
2023-03-27T10:27:00.524Z,97151.41
2023-03-27T10:29:30.090Z,97149.44
2023-03-27T10:31:59.107Z,97173.94
2023-03-27T10:34:43.398Z,97164.06
2023-03-27T10:37:20.692Z,97171.00
2023-03-27T10:39:47.753Z,97165.00
2023-03-27T10:42:16.682Z,97165.00
2023-03-27T10:44:45.809Z,97174.28
2023-03-27T10:47:21.364Z,97177.63
2023-03-27T10:50:08.202Z,97180.84
2023-03-27T10:52:57.605Z,97182.03
2023-03-27T10:55:40.024Z,97180.63
2023-03-27T10:58:19.821Z,97186.03
2023-03-27T11:00:52.359Z,97194.91
2023-03-27T11:03:30.338Z,97191.41
2023-03-27T11:05:59.133Z,97189.59
2023-03-27T11:08:48.145Z,97201.97
2023-03-27T11:11:25.416Z,97202.06
2023-03-27T11:13:52.093Z,97205.69
2023-03-27T11:16:57.012Z,97210.19
2023-03-27T11:19:45.008Z,97211.53
2023-03-27T11:22:14.716Z,97220.84
2023-03-27T11:24:51.814Z,97209.59
2023-03-27T11:27:31.187Z,97208.69
2023-03-27T11:30:04.643Z,97208.94
2023-03-27T11:32:42.168Z,97215.91
2023-03-27T11:35:14.915Z,97217.69
2023-03-27T11:37:55.805Z,97221.78
2023-03-27T11:40:53.537Z,97220.63
2023-03-27T11:43:22.221Z,97228.63
2023-03-27T11:46:09.710Z,97234.13
2023-03-27T11:48:38.762Z,97222.66
2023-03-27T11:51:30.952Z,97234.75
2023-03-27T11:54:13.349Z,97225.81
2023-03-27T11:57:10.897Z,97223.13
2023-03-27T12:00:31.910Z,97232.69
2023-03-27T12:03:09.754Z,97233.03
2023-03-27T12:06:02.014Z,97224.38
2023-03-27T12:08:34.552Z,97233.19
2023-03-27T12:11:05.415Z,97215.69
2023-03-27T12:13:41.349Z,97219.84
2023-03-27T12:16:16.047Z,97228.50
2023-03-27T12:22:24.275Z,97243.50
2023-03-27T12:25:15.398Z,97245.97
2023-03-27T12:28:22.535Z,97247.28
2023-03-27T12:30:52.889Z,97242.78
2023-03-27T12:33:37.784Z,97249.25
2023-03-27T12:36:09.675Z,97246.06
2023-03-27T12:38:39.370Z,97245.59
2023-03-27T12:41:10.908Z,97233.66
2023-03-27T12:43:43.693Z,97242.41
2023-03-27T12:46:32.649Z,97248.44
2023-03-27T12:49:05.382Z,97236.25
2023-03-27T12:51:51.126Z,97242.22
2023-03-27T12:54:28.106Z,97242.13
2023-03-27T12:57:16.625Z,97235.81
2023-03-27T12:59:48.911Z,97239.19
2023-03-27T13:02:15.943Z,97249.00
2023-03-27T13:05:00.124Z,97254.22
2023-03-27T13:08:00.656Z,97244.66
2023-03-27T13:10:55.089Z,97246.69
2023-03-27T13:13:48.304Z,97245.66
2023-03-27T13:16:27.617Z,97242.22
2023-03-27T13:19:28.661Z,97247.94
2023-03-27T13:22:20.102Z,97252.69
2023-03-27T13:25:10.559Z,97246.41
2023-03-27T13:27:39.934Z,97243.16
2023-03-27T13:30:07.552Z,97250.28
2023-03-27T13:32:41.145Z,97246.03
2023-03-27T13:35:21.094Z,97255.38
2023-03-27T13:37:50.400Z,97256.75
2023-03-27T13:40:23.434Z,97258.03
2023-03-27T13:43:21.623Z,97270.53
2023-03-27T13:45:52.079Z,97270.38
2023-03-27T13:48:32.032Z,97268.03
2023-03-27T13:51:22.839Z,97270.09
2023-03-27T13:53:53.999Z,97268.75
2023-03-27T13:56:43.735Z,97271.88
2023-03-27T13:59:44.666Z,97270.22
2023-03-27T14:02:48.825Z,97271.25
2023-03-27T14:05:42.512Z,97275.38
2023-03-27T14:08:22.428Z,97272.66
2023-03-27T14:11:22.942Z,97280.09
2023-03-27T14:14:19.816Z,97281.53
2023-03-27T14:16:57.570Z,97275.25
2023-03-27T14:19:51.810Z,97282.78
2023-03-27T14:22:48.318Z,97287.28
2023-03-27T14:25:18.046Z,97290.75
2023-03-27T14:27:48.726Z,97292.06
2023-03-27T14:30:21.898Z,97299.31
2023-03-27T14:32:49.867Z,97294.59
2023-03-27T14:35:36.230Z,97297.88
2023-03-27T14:38:29.011Z,97301.03
2023-03-27T14:40:58.641Z,97303.44
2023-03-27T14:43:27.514Z,97314.94
2023-03-27T14:45:58.503Z,97319.75
2023-03-27T14:48:34.182Z,97308.44
2023-03-27T14:51:03.188Z,97312.25
2023-03-27T14:53:36.472Z,97301.63
2023-03-27T14:56:37.254Z,97313.19
2023-03-27T14:59:10.901Z,97313.03
2023-03-27T15:01:37.603Z,97311.03
2023-03-27T15:04:07.334Z,97308.38
2023-03-27T15:06:36.680Z,97324.88
2023-03-27T15:09:05.612Z,97315.22
2023-03-27T15:11:38.450Z,97321.59
2023-03-27T15:14:12.938Z,97314.59
2023-03-27T15:16:41.192Z,97311.88
2023-03-27T15:19:17.228Z,97315.09
2023-03-27T15:21:46.873Z,97313.81
2023-03-27T15:24:21.700Z,97308.88
2023-03-27T15:26:50.683Z,97321.50
2023-03-27T15:29:39.161Z,97324.47
2023-03-27T15:32:11.988Z,97327.53
2023-03-27T15:34:47.671Z,97329.72
2023-03-27T15:37:20.178Z,97340.06
2023-03-27T15:40:12.182Z,97340.50
2023-03-27T15:42:50.533Z,97345.09
2023-03-27T15:45:21.266Z,97346.88
2023-03-27T15:48:02.898Z,97352.88
2023-03-27T15:50:29.420Z,97355.41
2023-03-27T15:52:58.255Z,97353.59
2023-03-27T15:55:33.011Z,97353.00
2023-03-27T15:58:00.114Z,97351.00
2023-03-27T16:00:28.843Z,97353.81
2023-03-27T16:02:55.774Z,97362.25
2023-03-27T16:05:22.441Z,97361.47
2023-03-27T16:07:49.091Z,97363.06
2023-03-27T16:10:31.276Z,97363.06
2023-03-27T16:13:02.694Z,97355.31
2023-03-27T16:15:37.841Z,97359.00
2023-03-27T16:18:18.672Z,97353.63
2023-03-27T16:20:45.692Z,97365.66
2023-03-27T16:23:12.146Z,97354.88
2023-03-27T16:25:39.043Z,97359.78
2023-03-27T16:28:08.341Z,97361.44
2023-03-27T16:30:41.900Z,97361.81
2023-03-27T16:33:17.352Z,97373.72
2023-03-27T16:35:45.370Z,97381.19
2023-03-27T16:38:13.537Z,97381.16
2023-03-27T16:40:39.978Z,97387.03
2023-03-27T16:43:06.347Z,97386.63
2023-03-27T16:45:33.174Z,97384.78
2023-03-27T16:47:59.708Z,97398.72
2023-03-27T16:50:29.024Z,97402.97
2023-03-27T16:52:55.502Z,97402.56
2023-03-27T16:55:22.007Z,97399.34
2023-03-27T16:57:49.005Z,97401.75
2023-03-27T17:00:16.593Z,97404.16
2023-03-27T17:02:44.382Z,97414.06
2023-03-27T17:05:11.219Z,97411.59
2023-03-27T17:07:37.875Z,97407.41
2023-03-27T17:10:05.878Z,97410.59
2023-03-27T17:12:32.495Z,97415.03
2023-03-27T17:14:58.960Z,97420.63
2023-03-27T17:17:27.454Z,97416.88
2023-03-27T17:19:54.170Z,97426.25
2023-03-27T17:22:20.677Z,97422.03
2023-03-27T17:24:56.027Z,97441.88
2023-03-27T17:27:26.586Z,97446.47
2023-03-27T17:29:55.467Z,97443.94
2023-03-27T17:32:22.453Z,97443.31
2023-03-27T17:34:50.793Z,97455.78
2023-03-27T17:37:18.391Z,97452.53
2023-03-27T17:39:44.805Z,97454.88
2023-03-27T17:42:11.219Z,97456.03
2023-03-27T17:44:38.109Z,97462.53
2023-03-27T17:47:04.969Z,97462.47
2023-03-27T17:49:31.759Z,97464.25
2023-03-27T17:51:58.216Z,97473.25
2023-03-27T17:54:24.603Z,97468.94
2023-03-27T17:56:51.045Z,97482.34
2023-03-27T17:59:17.615Z,97480.44
2023-03-27T18:01:45.296Z,97486.41
2023-03-27T18:04:12.110Z,97483.53
2023-03-27T18:06:38.544Z,97490.13
2023-03-27T18:09:04.907Z,97494.72
2023-03-27T18:11:31.381Z,97496.34
2023-03-27T18:13:58.003Z,97497.88
2023-03-27T18:16:24.566Z,97499.69
2023-03-27T18:18:52.327Z,97512.13
2023-03-27T18:21:18.972Z,97512.38
2023-03-27T18:23:46.396Z,97515.44
2023-03-27T18:26:14.573Z,97512.50
2023-03-27T18:28:44.185Z,97519.59
2023-03-27T18:31:12.742Z,97517.69
2023-03-27T18:33:39.324Z,97528.31
2023-03-27T18:36:11.482Z,97529.50
2023-03-27T18:38:40.145Z,97532.88
2023-03-27T18:41:06.857Z,97539.47
2023-03-27T18:43:33.657Z,97541.53
2023-03-27T18:46:02.383Z,97541.44
2023-03-27T18:48:30.903Z,97549.00
2023-03-27T18:50:58.389Z,97546.09
2023-03-27T18:53:25.472Z,97547.00
2023-03-27T18:55:53.010Z,97548.81
2023-03-27T18:58:21.407Z,97541.28
2023-03-27T19:00:47.854Z,97540.44
2023-03-27T19:03:17.759Z,97540.28
2023-03-27T19:05:44.994Z,97541.72
2023-03-27T19:08:11.568Z,97548.81
2023-03-27T19:10:38.621Z,97555.91
2023-03-27T19:13:05.544Z,97551.50
2023-03-27T19:15:32.583Z,97557.91
2023-03-27T19:17:59.143Z,97547.72
2023-03-27T19:20:25.703Z,97560.25
2023-03-27T19:22:52.298Z,97554.03
2023-03-27T19:25:19.172Z,97557.59
2023-03-27T19:27:45.968Z,97559.44
2023-03-27T19:30:13.844Z,97553.03
2023-03-27T19:32:40.825Z,97558.25
2023-03-27T19:35:07.590Z,97553.13
2023-03-27T19:37:34.175Z,97548.44
2023-03-27T19:40:00.819Z,97555.22
2023-03-27T19:42:28.571Z,97559.78
2023-03-27T19:44:55.536Z,97561.41
2023-03-27T19:47:22.193Z,97553.84
2023-03-27T19:49:48.616Z,97565.91
2023-03-27T19:52:16.879Z,97564.56
2023-03-27T19:54:43.449Z,97564.72
2023-03-27T19:57:09.965Z,97556.09
2023-03-27T19:59:36.533Z,97559.50
2023-03-27T20:02:04.087Z,97563.56
2023-03-27T20:04:30.988Z,97571.28
2023-03-27T20:06:58.911Z,97573.47
2023-03-27T20:09:25.506Z,97575.88
2023-03-27T20:11:53.301Z,97578.38
2023-03-27T20:14:19.737Z,97583.59
2023-03-27T20:16:46.583Z,97589.53
2023-03-27T20:19:14.252Z,97592.34
2023-03-27T20:21:41.932Z,97593.16
2023-03-27T20:24:10.456Z,97596.22
2023-03-27T20:26:41.406Z,97602.34
2023-03-27T20:29:10.646Z,97597.22
2023-03-27T20:31:37.468Z,97599.53
2023-03-27T20:34:05.462Z,97588.00
2023-03-27T20:36:34.824Z,97590.28
2023-03-27T20:39:06.073Z,97599.78
2023-03-27T20:41:34.337Z,97605.22
2023-03-27T20:44:00.825Z,97603.94
2023-03-27T20:46:30.504Z,97605.47
2023-03-27T20:48:57.325Z,97601.25
2023-03-27T20:51:24.604Z,97617.38
2023-03-27T20:53:55.541Z,97610.31
2023-03-27T20:56:22.965Z,97618.06
2023-03-27T20:58:50.158Z,97619.78
2023-03-27T21:01:19.243Z,97627.81
2023-03-27T21:03:49.386Z,97629.31
2023-03-27T21:06:18.690Z,97640.38
2023-03-27T21:08:45.900Z,97656.22
2023-03-27T21:11:12.582Z,97662.16
2023-03-27T21:13:39.091Z,97669.22
2023-03-27T21:16:05.894Z,97673.41
2023-03-27T21:18:32.725Z,97674.00
2023-03-27T21:20:59.150Z,97678.69
2023-03-27T21:23:25.602Z,97689.53
2023-03-27T21:25:53.149Z,97691.91
2023-03-27T21:28:19.697Z,97681.41
2023-03-27T21:30:48.452Z,97685.84
2023-03-27T21:33:15.966Z,97678.03
2023-03-27T21:35:45.714Z,97672.06
2023-03-27T21:38:12.982Z,97668.63
2023-03-27T21:40:39.798Z,97668.63
2023-03-27T21:43:06.804Z,97679.97
2023-03-27T21:45:33.380Z,97672.16
2023-03-27T21:48:00.245Z,97676.06
2023-03-27T21:50:26.856Z,97673.47
2023-03-27T21:52:53.229Z,97674.09
2023-03-27T21:55:20.330Z,97685.16
2023-03-27T21:57:46.728Z,97676.09
2023-03-27T22:00:14.440Z,97674.47
2023-03-27T22:02:41.381Z,97672.19
2023-03-27T22:05:08.238Z,97679.34
2023-03-27T22:07:34.617Z,97680.38
2023-03-27T22:10:01.512Z,97688.00
2023-03-27T22:12:28.010Z,97699.34
2023-03-27T22:14:54.642Z,97692.34
2023-03-27T22:17:21.035Z,97687.16
2023-03-27T22:19:47.471Z,97681.94
2023-03-27T22:22:13.916Z,97689.59
2023-03-27T22:24:40.358Z,97685.50
2023-03-27T22:27:06.795Z,97692.66
2023-03-27T22:29:33.764Z,97686.53
2023-03-27T22:32:00.284Z,97692.66
2023-03-27T22:34:27.181Z,97691.91
2023-03-27T22:36:53.607Z,97696.25
2023-03-27T22:39:19.976Z,97709.97
2023-03-27T22:41:46.390Z,97700.50
2023-03-27T22:44:12.868Z,97706.53
2023-03-27T22:46:39.380Z,97711.59
2023-03-27T22:49:05.792Z,97723.63
2023-03-27T22:51:32.213Z,97723.94
2023-03-27T22:53:58.857Z,97720.69
2023-03-27T22:56:25.422Z,97718.25
2023-03-27T22:58:52.005Z,97722.97
2023-03-27T23:01:18.447Z,97714.69
2023-03-27T23:03:45.022Z,97721.03
2023-03-27T23:06:20.230Z,97730.44
2023-03-27T23:08:47.506Z,97724.59
2023-03-27T23:11:14.282Z,97737.28
2023-03-27T23:13:41.244Z,97737.94
2023-03-27T23:16:09.150Z,97729.78
2023-03-27T23:18:36.486Z,97740.53
2023-03-27T23:21:08.661Z,97731.88
2023-03-27T23:23:36.452Z,97741.50
2023-03-27T23:26:03.806Z,97739.53
2023-03-27T23:28:33.820Z,97750.13
2023-03-27T23:31:02.428Z,97752.06
2023-03-27T23:33:33.175Z,97761.66
2023-03-27T23:36:21.340Z,97755.47
2023-03-27T23:38:48.013Z,97759.56
2023-03-27T23:41:16.036Z,97761.66
2023-03-27T23:43:42.870Z,97761.03
2023-03-27T23:46:10.590Z,97760.88
2023-03-27T23:48:42.121Z,97761.34
2023-03-27T23:51:10.383Z,97763.28
2023-03-27T23:53:37.556Z,97768.00
2023-03-27T23:56:04.463Z,97770.78
2023-03-27T23:58:34.108Z,97775.00
